首页
METAR-TAF:

METAR-TAF

机场 :

Tallahassee Regional Airport

塔拉哈西, 佛罗里达州, 美国

纬度: 30-23-35N, 经度: 084-21-12W, 海拔: 24米

当前天气观测

该预报发布于27分钟前的16:53 UTC
风速9节,风向西北
温度 10°C
湿度 82%
气压 1018 hPa
能見度: 16.1公里
阴天层高于1100英尺

METAR: KTLH 031653Z 32009KT 10SM OVC011 10/07 A3006 RMK AO2 SLP178 T01000067

时间: 12:20 (17:20 UTC)

预报

该预报发布于1小时和15分钟前的16:05 UTC
预报有效从03日的 16点(UTC)到 04日的 12点(UTC)
风速10节,风向北转西北
能見度: 10公里
多云层高于1500英尺
从 03日的 2300点(UTC)
风速9节,风向北转西北
能見度: 10公里
散云层高于4000英尺

TAF: KTLH 031605Z 0316/0412 33010KT P6SM BKN015 FM032300 33009KT P6SM SCT040

超过4000个机场的气象观测和天气预报(METAR&TAF报告)。

可查询的气象台以黄色和红色小点在地图上表示。

将鼠标移到小点上方,可查看气象台名称。

然后点击查看天气观测和预报。

如需切换地图:点击带黑十字的绿色按钮放大地图;点击带横线的绿色按钮缩小地图;或者点击绿色箭头查看邻近地区的地图。


METAR-TAF: